createdAt,value
2022-10-17T00:00:04.116Z,8.83
2022-10-17T00:02:31.961Z,9.30
2022-10-17T00:04:59.759Z,8.50
2022-10-17T00:07:33.118Z,9.80
2022-10-17T00:10:01.167Z,8.93
2022-10-17T00:12:32.499Z,7.10
2022-10-17T00:15:02.167Z,8.87
2022-10-17T00:17:30.444Z,6.00
2022-10-17T00:20:01.620Z,14.33
2022-10-17T00:22:31.320Z,10.67
2022-10-17T00:24:59.155Z,7.90
2022-10-17T00:27:30.838Z,11.10
2022-10-17T00:30:01.404Z,9.67
2022-10-17T00:34:58.516Z,9.03
2022-10-17T00:37:28.410Z,5.13
2022-10-17T00:39:56.198Z,6.78
2022-10-17T00:42:38.861Z,10.67
2022-10-17T00:45:14.781Z,7.77
2022-10-17T00:47:51.217Z,12.97
2022-10-17T00:50:20.520Z,10.13
2022-10-17T00:52:51.426Z,9.10
2022-10-17T00:55:24.982Z,5.73
2022-10-17T00:57:57.518Z,8.80
2022-10-17T01:00:27.890Z,6.47
2022-10-17T01:02:57.844Z,12.57
2022-10-17T01:05:25.709Z,8.90
2022-10-17T01:07:57.167Z,8.27
2022-10-17T01:10:34.174Z,7.93
2022-10-17T01:13:12.671Z,9.67
2022-10-17T01:15:51.698Z,9.37
2022-10-17T01:18:35.790Z,8.17
2022-10-17T01:21:21.408Z,8.40
2022-10-17T01:24:33.759Z,11.40
2022-10-17T01:27:25.006Z,7.33
2022-10-17T01:30:32.496Z,15.97
2022-10-17T01:33:08.281Z,7.17
2022-10-17T01:35:43.748Z,8.47
2022-10-17T01:38:15.862Z,9.97
2022-10-17T01:40:53.903Z,9.97
2022-10-17T01:43:27.038Z,6.73
2022-10-17T01:46:05.955Z,6.33
2022-10-17T01:48:37.734Z,9.90
2022-10-17T01:51:14.343Z,11.60
2022-10-17T01:53:47.594Z,6.00
2022-10-17T01:56:21.343Z,6.73
2022-10-17T01:58:54.136Z,8.27
2022-10-17T02:01:29.678Z,10.77
2022-10-17T02:04:17.079Z,8.87
2022-10-17T02:06:49.044Z,7.63
2022-10-17T02:09:22.697Z,12.17
2022-10-17T02:12:18.845Z,8.53
2022-10-17T02:15:03.439Z,8.87
2022-10-17T02:17:45.020Z,8.33
2022-10-17T02:20:21.599Z,9.20
2022-10-17T02:22:59.291Z,5.67
2022-10-17T02:25:37.840Z,9.67
2022-10-17T02:28:19.396Z,4.93
2022-10-17T02:30:53.013Z,7.33
2022-10-17T02:33:28.745Z,11.30
2022-10-17T02:36:03.148Z,4.40
2022-10-17T02:38:38.008Z,11.40
2022-10-17T02:41:07.634Z,8.47
2022-10-17T02:43:42.230Z,8.77
2022-10-17T02:46:10.422Z,5.80
2022-10-17T02:48:47.130Z,6.00
2022-10-17T02:51:23.491Z,5.47
2022-10-17T02:54:01.377Z,4.97
2022-10-17T02:56:32.549Z,7.90
2022-10-17T02:59:06.468Z,6.23
2022-10-17T03:01:36.346Z,5.13
2022-10-17T03:04:13.050Z,7.07
2022-10-17T03:06:42.875Z,4.33
2022-10-17T03:09:10.728Z,7.88
2022-10-17T03:11:41.040Z,7.83
2022-10-17T03:14:08.923Z,6.28
2022-10-17T03:16:39.015Z,9.07
2022-10-17T03:19:10.036Z,7.38
2022-10-17T03:21:38.289Z,6.57
2022-10-17T03:24:09.131Z,6.23
2022-10-17T03:26:39.223Z,5.10
2022-10-17T03:29:07.048Z,7.85
2022-10-17T03:31:37.455Z,8.57
2022-10-17T03:34:07.156Z,10.07
2022-10-17T03:36:34.930Z,5.75
2022-10-17T03:39:05.109Z,6.93
2022-10-17T03:41:36.203Z,4.32
2022-10-17T03:44:04.501Z,6.80
2022-10-17T03:46:34.741Z,9.13
2022-10-17T03:49:04.750Z,7.47
2022-10-17T03:51:34.522Z,11.25
2022-10-17T03:54:05.375Z,7.47
2022-10-17T03:56:36.504Z,7.73
2022-10-17T03:59:04.328Z,8.33
2022-10-17T04:01:34.504Z,8.67
2022-10-17T04:04:02.661Z,6.25
2022-10-17T04:06:30.418Z,5.70
2022-10-17T04:09:00.572Z,10.07
2022-10-17T04:11:32.747Z,5.50
2022-10-17T04:14:01.916Z,7.10
2022-10-17T04:16:30.232Z,10.00
2022-10-17T04:19:03.315Z,8.87
2022-10-17T04:21:31.100Z,7.20
2022-10-17T04:24:00.339Z,10.10
2022-10-17T04:26:35.043Z,12.93
2022-10-17T04:29:05.170Z,8.30
2022-10-17T04:31:32.974Z,9.25
2022-10-17T04:34:03.204Z,12.20
2022-10-17T04:36:30.981Z,8.20
2022-10-17T04:38:58.780Z,12.90
2022-10-17T04:41:30.601Z,5.43
2022-10-17T04:43:58.475Z,7.43
2022-10-17T04:46:27.610Z,7.57
2022-10-17T04:48:59.470Z,8.17
2022-10-17T04:51:27.271Z,6.90
2022-10-17T04:53:55.176Z,7.10
2022-10-17T04:56:26.387Z,7.37
2022-10-17T04:58:54.161Z,8.03
2022-10-17T05:01:23.698Z,6.10
2022-10-17T05:03:57.900Z,7.95
2022-10-17T05:06:28.160Z,9.20
2022-10-17T05:09:01.037Z,5.65
2022-10-17T05:11:30.269Z,7.87
2022-10-17T05:14:01.564Z,9.53
2022-10-17T05:16:32.338Z,9.97
2022-10-17T05:19:04.074Z,8.30
2022-10-17T05:24:02.049Z,6.20
2022-10-17T05:26:32.183Z,6.55
2022-10-17T05:29:02.793Z,8.05
2022-10-17T05:31:33.390Z,7.93
2022-10-17T05:36:32.553Z,10.10
2022-10-17T05:39:02.386Z,6.97
2022-10-17T05:41:32.485Z,8.05
2022-10-17T05:44:03.160Z,8.00
2022-10-17T05:46:35.945Z,7.90
2022-10-17T05:49:14.766Z,7.68
2022-10-17T05:51:57.062Z,9.17
2022-10-17T05:54:25.004Z,5.83
2022-10-17T05:56:53.446Z,7.10
2022-10-17T05:59:25.378Z,7.97
2022-10-17T06:01:53.441Z,8.27
2022-10-17T06:04:22.739Z,6.23
2022-10-17T06:06:55.085Z,8.57
2022-10-17T06:09:24.333Z,9.20
2022-10-17T06:11:52.434Z,6.83
2022-10-17T06:14:24.417Z,9.97
2022-10-17T06:16:52.157Z,13.00
2022-10-17T06:19:20.379Z,6.40
2022-10-17T06:21:53.473Z,4.73
2022-10-17T06:24:21.222Z,6.67
2022-10-17T06:26:49.925Z,9.90
2022-10-17T06:29:24.367Z,7.13
2022-10-17T06:31:52.175Z,8.63
2022-10-17T06:34:20.115Z,6.63
2022-10-17T06:36:53.075Z,3.93
2022-10-17T06:39:20.850Z,5.43
2022-10-17T06:41:48.622Z,9.23
2022-10-17T06:44:18.412Z,10.10
2022-10-17T06:46:46.188Z,8.13
2022-10-17T06:49:13.979Z,7.50
2022-10-17T06:51:44.112Z,9.03
2022-10-17T06:54:13.258Z,7.22
2022-10-17T06:56:41.050Z,8.60
2022-10-17T06:59:13.578Z,8.73
2022-10-17T07:01:43.272Z,7.20
2022-10-17T07:04:18.051Z,9.23
2022-10-17T07:06:45.911Z,9.93
2022-10-17T07:09:15.079Z,5.00
2022-10-17T07:11:46.924Z,6.90
2022-10-17T07:14:14.663Z,6.73
2022-10-17T07:16:45.441Z,6.10
2022-10-17T07:19:13.351Z,5.10
2022-10-17T07:21:41.167Z,7.10
2022-10-17T07:24:09.102Z,7.87
2022-10-17T07:26:40.148Z,4.03
2022-10-17T07:29:08.169Z,8.03
2022-10-17T07:31:38.253Z,11.50
2022-10-17T07:34:06.065Z,4.95
2022-10-17T07:36:34.156Z,7.17
2022-10-17T07:39:02.157Z,9.63
2022-10-17T07:41:32.581Z,5.33
2022-10-17T07:44:01.775Z,7.03
2022-10-17T07:46:29.789Z,7.77
2022-10-17T07:48:59.522Z,6.97
2022-10-17T07:51:27.975Z,6.15
2022-10-17T07:53:58.166Z,5.27
2022-10-17T07:56:26.193Z,8.40
2022-10-17T07:58:54.737Z,9.40
2022-10-17T08:01:30.025Z,6.67
2022-10-17T08:03:57.849Z,8.40
2022-10-17T08:06:27.863Z,7.90
2022-10-17T08:08:59.927Z,6.57
2022-10-17T08:11:27.841Z,6.83
2022-10-17T08:13:57.960Z,7.57
2022-10-17T08:16:29.109Z,6.00
2022-10-17T08:18:57.123Z,6.23
2022-10-17T08:21:25.200Z,6.13
2022-10-17T08:23:55.050Z,10.20
2022-10-17T08:26:23.207Z,8.48
2022-10-17T08:28:53.620Z,10.03
2022-10-17T08:33:52.988Z,6.38
2022-10-17T08:36:21.700Z,8.90
2022-10-17T08:38:53.018Z,9.57
2022-10-17T08:41:42.069Z,7.83
2022-10-17T08:44:22.548Z,7.47
2022-10-17T08:49:29.715Z,8.47
2022-10-17T08:52:07.291Z,10.13
2022-10-17T08:54:42.981Z,5.07
2022-10-17T08:57:14.397Z,9.37
2022-10-17T08:59:43.382Z,7.67
2022-10-17T09:02:35.750Z,7.07
2022-10-17T09:05:26.689Z,10.03
2022-10-17T09:08:08.011Z,6.93
2022-10-17T09:10:53.614Z,5.80
2022-10-17T09:13:33.305Z,6.37
2022-10-17T09:16:16.067Z,6.70
2022-10-17T09:18:59.508Z,6.10
2022-10-17T09:21:37.542Z,8.37
2022-10-17T09:24:17.037Z,6.70
2022-10-17T09:26:46.960Z,7.50
2022-10-17T09:29:24.480Z,8.63
2022-10-17T09:32:01.779Z,6.83
2022-10-17T09:34:34.343Z,4.87
2022-10-17T09:37:04.139Z,8.47
2022-10-17T09:39:34.458Z,5.93
2022-10-17T09:42:04.058Z,4.20
2022-10-17T09:44:34.012Z,6.28
2022-10-17T09:47:21.713Z,7.75
2022-10-17T09:49:51.093Z,5.87
2022-10-17T09:52:30.667Z,7.83
2022-10-17T09:55:02.856Z,5.85
2022-10-17T09:57:55.394Z,6.23
2022-10-17T10:00:25.565Z,8.20
2022-10-17T10:03:11.886Z,6.13
2022-10-17T10:05:39.962Z,9.33
2022-10-17T10:08:16.053Z,11.90
2022-10-17T10:10:44.470Z,9.60
2022-10-17T10:13:22.404Z,6.67
2022-10-17T10:15:51.821Z,8.07
2022-10-17T10:18:32.923Z,6.77
2022-10-17T10:21:09.759Z,5.13
2022-10-17T10:23:43.205Z,4.53
2022-10-17T10:26:23.771Z,7.53
2022-10-17T10:31:34.859Z,6.40
2022-10-17T10:34:18.749Z,6.93
2022-10-17T10:36:51.234Z,6.80
2022-10-17T10:39:31.871Z,6.07
2022-10-17T10:42:00.434Z,4.13
2022-10-17T10:44:35.087Z,6.33
2022-10-17T10:47:16.731Z,7.07
2022-10-17T10:49:45.573Z,6.20
2022-10-17T10:52:23.388Z,5.90
2022-10-17T10:55:02.281Z,5.43
2022-10-17T10:57:34.702Z,3.73
2022-10-17T11:00:12.475Z,4.73
2022-10-17T11:02:48.663Z,3.33
2022-10-17T11:05:22.150Z,3.03
2022-10-17T11:07:56.154Z,2.87
2022-10-17T11:10:32.690Z,5.33
2022-10-17T11:13:07.195Z,3.80
2022-10-17T11:15:41.864Z,6.87
2022-10-17T11:18:14.292Z,2.20
2022-10-17T11:20:51.815Z,3.50
2022-10-17T11:23:25.251Z,4.57
2022-10-17T11:25:55.836Z,3.10
2022-10-17T11:28:26.066Z,2.83
2022-10-17T11:31:05.844Z,3.63
2022-10-17T11:33:45.252Z,3.00
2022-10-17T11:36:17.827Z,4.03
2022-10-17T11:38:50.863Z,3.17
2022-10-17T11:41:31.008Z,3.60
2022-10-17T11:44:04.537Z,4.78
2022-10-17T11:46:37.672Z,4.77
2022-10-17T11:49:19.048Z,7.27
2022-10-17T11:52:00.903Z,5.50
2022-10-17T11:54:35.108Z,4.47
2022-10-17T11:57:22.803Z,2.63
2022-10-17T12:00:01.291Z,4.07
2022-10-17T12:02:39.203Z,6.47
2022-10-17T12:05:21.139Z,5.27
2022-10-17T12:07:56.425Z,2.73
2022-10-17T12:10:38.487Z,5.67
2022-10-17T12:13:42.981Z,8.13
2022-10-17T12:16:46.127Z,4.43
2022-10-17T12:19:28.748Z,2.77
2022-10-17T12:21:59.377Z,3.53
2022-10-17T12:24:36.007Z,5.37
2022-10-17T12:27:23.386Z,6.80
2022-10-17T12:29:51.821Z,3.57
2022-10-17T12:32:21.089Z,5.33
2022-10-17T12:34:56.182Z,6.03
2022-10-17T12:37:58.696Z,5.40
2022-10-17T12:40:52.302Z,7.60
2022-10-17T12:43:58.149Z,6.23
2022-10-17T12:46:47.467Z,6.27
2022-10-17T12:49:40.594Z,7.30
2022-10-17T12:52:24.012Z,7.60
2022-10-17T12:55:07.427Z,6.10
2022-10-17T12:57:47.488Z,5.83
2022-10-17T13:00:22.865Z,7.63
2022-10-17T13:02:55.393Z,8.07
2022-10-17T13:05:29.754Z,8.10
2022-10-17T13:08:02.251Z,5.10
2022-10-17T13:10:33.224Z,6.17
2022-10-17T13:13:09.494Z,8.57
2022-10-17T13:15:38.494Z,6.40
2022-10-17T13:18:21.132Z,4.77
2022-10-17T13:20:58.913Z,4.50
2022-10-17T13:23:31.863Z,10.17
2022-10-17T13:26:09.048Z,7.20
2022-10-17T13:28:39.537Z,9.63
2022-10-17T13:31:08.029Z,4.53
2022-10-17T13:33:41.123Z,3.63
2022-10-17T13:36:18.881Z,6.97
2022-10-17T13:38:50.991Z,6.60
2022-10-17T13:41:35.335Z,6.43
2022-10-17T13:44:08.774Z,8.80
2022-10-17T13:46:38.853Z,7.27
2022-10-17T13:49:23.175Z,6.40
2022-10-17T13:51:56.162Z,8.07
2022-10-17T13:54:38.775Z,10.30
2022-10-17T13:57:08.065Z,7.00
2022-10-17T13:59:42.465Z,9.10
2022-10-17T14:02:16.464Z,6.87
2022-10-17T14:05:18.661Z,6.60
2022-10-17T14:08:12.664Z,8.27
2022-10-17T14:10:45.351Z,10.37
2022-10-17T14:13:22.162Z,8.27
2022-10-17T14:15:51.065Z,9.07
2022-10-17T14:18:21.947Z,10.33
2022-10-17T14:23:44.498Z,11.87
2022-10-17T14:26:16.080Z,11.97
2022-10-17T14:28:46.859Z,10.40
2022-10-17T14:31:25.096Z,13.03
2022-10-17T14:33:54.704Z,13.33
2022-10-17T14:36:32.427Z,14.68
2022-10-17T14:39:02.491Z,11.97
2022-10-17T14:41:48.600Z,12.27
2022-10-17T14:44:29.559Z,12.03
2022-10-17T14:47:03.432Z,11.97
2022-10-17T14:49:39.990Z,5.63
2022-10-17T14:54:49.866Z,9.57
2022-10-17T14:57:19.880Z,10.87
2022-10-17T14:59:55.714Z,11.07
2022-10-17T15:02:24.281Z,12.57
2022-10-17T15:04:52.247Z,12.90
2022-10-17T15:07:21.102Z,10.63
2022-10-17T15:09:52.640Z,8.63
2022-10-17T15:12:24.939Z,9.93
2022-10-17T15:14:53.432Z,8.87
2022-10-17T15:17:27.581Z,13.23
2022-10-17T15:19:55.822Z,10.60
2022-10-17T15:22:24.210Z,10.50
2022-10-17T15:24:53.508Z,10.17
2022-10-17T15:27:22.873Z,8.13
2022-10-17T15:29:51.663Z,14.17
2022-10-17T15:32:20.030Z,11.97
2022-10-17T15:34:47.831Z,10.87
2022-10-17T15:37:22.675Z,12.30
2022-10-17T15:39:53.519Z,17.07
2022-10-17T15:42:27.459Z,10.83
2022-10-17T15:44:55.909Z,14.10
2022-10-17T15:47:26.461Z,9.20
2022-10-17T15:49:54.957Z,13.60
2022-10-17T15:52:22.900Z,13.67
2022-10-17T15:54:50.712Z,10.03
2022-10-17T15:57:21.515Z,20.47
2022-10-17T15:59:52.174Z,13.10
2022-10-17T16:02:21.662Z,14.03
2022-10-17T16:04:55.358Z,9.53
2022-10-17T16:07:23.275Z,10.53
2022-10-17T16:09:51.081Z,10.80
2022-10-17T16:12:29.910Z,14.60
2022-10-17T16:14:59.117Z,15.93
2022-10-17T16:17:29.375Z,9.13
2022-10-17T16:22:32.422Z,18.47
2022-10-17T16:25:09.633Z,16.23
2022-10-17T16:27:38.740Z,14.77
2022-10-17T16:30:10.015Z,15.30
2022-10-17T16:32:39.658Z,21.03
2022-10-17T16:35:08.792Z,16.02
2022-10-17T16:37:36.863Z,12.87
2022-10-17T16:40:05.657Z,14.50
2022-10-17T16:42:33.505Z,12.07
2022-10-17T16:45:03.574Z,13.47
2022-10-17T16:47:34.598Z,22.27
2022-10-17T16:50:02.440Z,15.10
2022-10-17T16:52:30.585Z,13.77
2022-10-17T16:54:58.621Z,17.27
2022-10-17T16:57:26.482Z,14.20
2022-10-17T16:59:56.533Z,16.87
2022-10-17T17:02:24.444Z,17.15
2022-10-17T17:04:53.570Z,20.17
2022-10-17T17:07:22.150Z,13.30
2022-10-17T17:09:49.989Z,15.17
2022-10-17T17:12:17.741Z,15.57
2022-10-17T17:14:45.597Z,16.30
2022-10-17T17:17:19.694Z,8.33
2022-10-17T17:19:59.828Z,15.47
2022-10-17T17:22:29.860Z,16.30
2022-10-17T17:24:57.598Z,16.20
2022-10-17T17:27:28.854Z,16.23
2022-10-17T17:29:57.053Z,14.67
2022-10-17T17:32:24.861Z,10.73
2022-10-17T17:34:55.171Z,11.83
2022-10-17T17:37:24.447Z,17.80
2022-10-17T17:39:52.263Z,14.97
2022-10-17T17:42:20.399Z,12.27
2022-10-17T17:44:50.656Z,18.60
2022-10-17T17:47:18.491Z,14.13
2022-10-17T17:49:48.567Z,13.03
2022-10-17T17:52:16.527Z,16.83
2022-10-17T17:54:45.863Z,20.23
2022-10-17T17:57:13.824Z,14.63
2022-10-17T17:59:43.665Z,18.17
2022-10-17T18:02:13.761Z,17.05
2022-10-17T18:04:41.611Z,17.30
2022-10-17T18:07:11.353Z,19.63
2022-10-17T18:09:41.360Z,17.60
2022-10-17T18:12:10.537Z,14.95
2022-10-17T18:14:40.342Z,19.97
2022-10-17T18:17:08.309Z,16.63
2022-10-17T18:19:36.126Z,19.87
2022-10-17T18:22:05.866Z,19.60
2022-10-17T18:24:36.034Z,17.65
2022-10-17T18:27:04.133Z,16.45
2022-10-17T18:29:35.626Z,16.67
2022-10-17T18:32:06.099Z,17.33
2022-10-17T18:37:27.307Z,15.77
2022-10-17T18:39:55.959Z,13.33
2022-10-17T18:42:24.088Z,18.60
2022-10-17T18:47:49.573Z,15.20
2022-10-17T18:50:20.016Z,19.17
2022-10-17T18:55:25.946Z,19.67
2022-10-17T18:57:56.040Z,17.47
2022-10-17T19:00:23.978Z,17.95
2022-10-17T19:02:55.761Z,17.87
2022-10-17T19:05:23.976Z,13.23
2022-10-17T19:07:52.015Z,18.30
2022-10-17T19:10:22.368Z,15.03
2022-10-17T19:12:52.576Z,19.45
2022-10-17T19:15:26.371Z,21.42
2022-10-17T19:17:56.068Z,21.80
2022-10-17T19:20:30.185Z,19.90
2022-10-17T19:23:00.334Z,25.13
2022-10-17T19:25:30.580Z,25.90
2022-10-17T19:27:59.346Z,18.77
2022-10-17T19:30:28.577Z,17.97
2022-10-17T19:32:59.156Z,17.07
2022-10-17T19:35:28.336Z,25.17
2022-10-17T19:37:56.862Z,20.57
2022-10-17T19:40:24.786Z,25.90
2022-10-17T19:42:57.527Z,16.80
2022-10-17T19:45:27.770Z,25.20
2022-10-17T19:47:56.958Z,22.92
2022-10-17T19:50:27.111Z,15.40
2022-10-17T19:52:55.027Z,16.17
2022-10-17T19:55:22.813Z,21.43
2022-10-17T19:57:52.842Z,22.80
2022-10-17T20:00:22.930Z,19.70
2022-10-17T20:02:50.666Z,10.88
2022-10-17T20:05:22.548Z,16.80
2022-10-17T20:07:53.730Z,21.87
2022-10-17T20:10:21.684Z,21.13
2022-10-17T20:12:49.498Z,20.90
2022-10-17T20:15:17.655Z,21.53
2022-10-17T20:17:47.490Z,18.53
2022-10-17T20:20:15.299Z,23.98
2022-10-17T20:22:44.699Z,13.33
2022-10-17T20:25:12.564Z,13.53
2022-10-17T20:27:40.365Z,17.67
2022-10-17T20:30:08.971Z,18.63
2022-10-17T20:32:39.572Z,16.30
2022-10-17T20:35:08.830Z,16.67
2022-10-17T20:37:42.520Z,20.00
2022-10-17T20:43:03.461Z,15.25
2022-10-17T20:48:21.493Z,18.40
2022-10-17T20:50:49.843Z,13.00
2022-10-17T20:53:36.180Z,16.13
2022-10-17T20:56:11.921Z,14.30
2022-10-17T20:58:39.688Z,19.90
2022-10-17T21:01:08.941Z,16.27
2022-10-17T21:03:39.804Z,15.97
2022-10-17T21:06:10.909Z,13.93
2022-10-17T21:08:39.100Z,19.33
2022-10-17T21:11:16.681Z,12.23
2022-10-17T21:13:45.102Z,18.17
2022-10-17T21:16:15.475Z,15.77
2022-10-17T21:18:48.240Z,18.23
2022-10-17T21:21:17.556Z,17.73
2022-10-17T21:23:51.989Z,19.37
2022-10-17T21:26:21.500Z,19.83
2022-10-17T21:28:52.316Z,16.40
2022-10-17T21:31:24.003Z,22.13
2022-10-17T21:33:53.523Z,17.13
2022-10-17T21:36:24.603Z,26.63
2022-10-17T21:38:56.180Z,19.53
2022-10-17T21:41:29.163Z,21.00
2022-10-17T21:43:58.903Z,12.73
2022-10-17T21:46:27.296Z,18.80
2022-10-17T21:48:55.690Z,14.07
2022-10-17T21:51:27.190Z,14.57
2022-10-17T21:53:58.331Z,12.50
2022-10-17T21:56:30.698Z,12.47
2022-10-17T21:58:59.516Z,17.60
2022-10-17T22:01:29.407Z,11.20
2022-10-17T22:04:00.883Z,19.92
2022-10-17T22:06:39.668Z,12.47
2022-10-17T22:09:10.464Z,13.18
2022-10-17T22:11:42.278Z,11.25
2022-10-17T22:14:16.091Z,9.53
2022-10-17T22:16:45.341Z,14.63
2022-10-17T22:19:15.859Z,17.30
2022-10-17T22:24:15.801Z,17.17
2022-10-17T22:29:19.362Z,17.83
2022-10-17T22:31:47.362Z,11.43
2022-10-17T22:34:16.970Z,15.20
2022-10-17T22:36:47.811Z,16.92
2022-10-17T22:39:15.777Z,14.30
2022-10-17T22:41:46.962Z,14.03
2022-10-17T22:44:14.927Z,14.17
2022-10-17T22:46:42.757Z,15.73
2022-10-17T22:49:12.526Z,6.43
2022-10-17T22:51:42.580Z,9.75
2022-10-17T22:54:10.370Z,13.68
2022-10-17T22:56:39.997Z,9.27
2022-10-17T22:59:10.979Z,14.25
2022-10-17T23:01:38.785Z,7.80
2022-10-17T23:04:06.667Z,8.90
2022-10-17T23:06:36.794Z,8.20
2022-10-17T23:09:05.000Z,6.75
2022-10-17T23:11:34.637Z,10.87
2022-10-17T23:14:04.707Z,7.93
2022-10-17T23:16:34.936Z,8.50
2022-10-17T23:19:05.052Z,8.40
2022-10-17T23:21:35.065Z,4.25
2022-10-17T23:24:02.783Z,6.28
2022-10-17T23:26:32.487Z,6.93
2022-10-17T23:29:02.683Z,3.60
2022-10-17T23:31:36.369Z,9.27
2022-10-17T23:34:04.200Z,7.43
2022-10-17T23:39:08.958Z,5.17
2022-10-17T23:41:36.735Z,3.97
2022-10-17T23:44:04.782Z,12.20
2022-10-17T23:46:38.071Z,6.83
2022-10-17T23:49:06.078Z,12.97
2022-10-17T23:51:34.390Z,8.30
2022-10-17T23:54:06.627Z,8.13
2022-10-17T23:56:34.420Z,13.33
2022-10-17T23:59:02.172Z,8.00
